sensor_id;sensor_type;location;lat;lon;timestamp;P1;durP1;ratioP1;P2;durP2;ratioP2
26157;SDS011;13910;44.782;10.282;2023-01-05T00:04:46;61.35;;;30.00;;
26157;SDS011;13910;44.782;10.282;2023-01-05T00:09:38;62.08;;;29.15;;
26157;SDS011;13910;44.782;10.282;2023-01-05T00:14:30;55.45;;;27.15;;
26157;SDS011;13910;44.782;10.282;2023-01-05T00:19:41;57.08;;;26.58;;
26157;SDS011;13910;44.782;10.282;2023-01-05T00:24:52;54.95;;;26.20;;
26157;SDS011;13910;44.782;10.282;2023-01-05T00:29:43;50.22;;;26.40;;
26157;SDS011;13910;44.782;10.282;2023-01-05T00:34:35;44.67;;;23.95;;
26157;SDS011;13910;44.782;10.282;2023-01-05T00:39:27;45.50;;;23.40;;
26157;SDS011;13910;44.782;10.282;2023-01-05T00:44:19;45.25;;;23.77;;
26157;SDS011;13910;44.782;10.282;2023-01-05T00:49:10;47.40;;;25.25;;
26157;SDS011;13910;44.782;10.282;2023-01-05T00:54:02;45.08;;;23.77;;
26157;SDS011;13910;44.782;10.282;2023-01-05T00:58:54;49.30;;;25.20;;
26157;SDS011;13910;44.782;10.282;2023-01-05T01:03:46;45.47;;;24.65;;
26157;SDS011;13910;44.782;10.282;2023-01-05T01:08:38;49.05;;;23.10;;
26157;SDS011;13910;44.782;10.282;2023-01-05T01:13:30;46.03;;;21.98;;
26157;SDS011;13910;44.782;10.282;2023-01-05T01:18:22;50.10;;;22.77;;
26157;SDS011;13910;44.782;10.282;2023-01-05T01:23:14;39.42;;;21.40;;
26157;SDS011;13910;44.782;10.282;2023-01-05T01:28:05;43.88;;;22.88;;
26157;SDS011;13910;44.782;10.282;2023-01-05T01:32:57;40.40;;;22.15;;
26157;SDS011;13910;44.782;10.282;2023-01-05T01:37:49;42.40;;;22.38;;
26157;SDS011;13910;44.782;10.282;2023-01-05T01:42:41;39.45;;;22.00;;
26157;SDS011;13910;44.782;10.282;2023-01-05T01:52:32;39.13;;;22.02;;
26157;SDS011;13910;44.782;10.282;2023-01-05T01:57:25;45.50;;;23.20;;
26157;SDS011;13910;44.782;10.282;2023-01-05T02:02:19;44.28;;;23.55;;
26157;SDS011;13910;44.782;10.282;2023-01-05T02:07:14;43.53;;;22.08;;
26157;SDS011;13910;44.782;10.282;2023-01-05T02:17:47;49.17;;;24.23;;
26157;SDS011;13910;44.782;10.282;2023-01-05T02:38:37;45.85;;;23.98;;
26157;SDS011;13910;44.782;10.282;2023-01-05T02:43:30;43.03;;;22.88;;
26157;SDS011;13910;44.782;10.282;2023-01-05T02:48:22;45.25;;;22.10;;
26157;SDS011;13910;44.782;10.282;2023-01-05T02:58:16;42.28;;;21.90;;
26157;SDS011;13910;44.782;10.282;2023-01-05T03:03:25;41.73;;;22.07;;
26157;SDS011;13910;44.782;10.282;2023-01-05T03:08:32;42.72;;;21.67;;
26157;SDS011;13910;44.782;10.282;2023-01-05T03:13:29;39.45;;;19.48;;
26157;SDS011;13910;44.782;10.282;2023-01-05T03:18:39;42.70;;;23.17;;
26157;SDS011;13910;44.782;10.282;2023-01-05T03:23:52;39.40;;;22.27;;
26157;SDS011;13910;44.782;10.282;2023-01-05T03:29:06;38.83;;;21.85;;
26157;SDS011;13910;44.782;10.282;2023-01-05T03:34:26;38.15;;;22.08;;
26157;SDS011;13910;44.782;10.282;2023-01-05T03:39:47;38.50;;;19.90;;
26157;SDS011;13910;44.782;10.282;2023-01-05T03:44:39;40.08;;;19.98;;
26157;SDS011;13910;44.782;10.282;2023-01-05T03:49:36;41.13;;;21.33;;
26157;SDS011;13910;44.782;10.282;2023-01-05T03:54:29;46.20;;;22.42;;
26157;SDS011;13910;44.782;10.282;2023-01-05T03:59:21;40.10;;;21.77;;
26157;SDS011;13910;44.782;10.282;2023-01-05T04:04:14;41.97;;;22.08;;
26157;SDS011;13910;44.782;10.282;2023-01-05T04:09:07;41.75;;;21.08;;
26157;SDS011;13910;44.782;10.282;2023-01-05T04:14:02;41.33;;;19.75;;
26157;SDS011;13910;44.782;10.282;2023-01-05T04:18:57;43.80;;;20.48;;
26157;SDS011;13910;44.782;10.282;2023-01-05T04:23:49;40.17;;;20.33;;
26157;SDS011;13910;44.782;10.282;2023-01-05T04:28:42;40.83;;;20.38;;
26157;SDS011;13910;44.782;10.282;2023-01-05T04:33:35;41.25;;;19.92;;
26157;SDS011;13910;44.782;10.282;2023-01-05T04:38:30;44.83;;;19.33;;
26157;SDS011;13910;44.782;10.282;2023-01-05T04:43:23;39.30;;;18.77;;
26157;SDS011;13910;44.782;10.282;2023-01-05T04:48:15;38.78;;;17.23;;
26157;SDS011;13910;44.782;10.282;2023-01-05T04:53:07;33.88;;;16.45;;
26157;SDS011;13910;44.782;10.282;2023-01-05T04:58:03;37.25;;;18.60;;
26157;SDS011;13910;44.782;10.282;2023-01-05T05:03:03;35.25;;;16.70;;
26157;SDS011;13910;44.782;10.282;2023-01-05T05:07:57;39.50;;;19.08;;
26157;SDS011;13910;44.782;10.282;2023-01-05T05:12:51;37.63;;;19.73;;
26157;SDS011;13910;44.782;10.282;2023-01-05T05:17:43;34.88;;;17.15;;
26157;SDS011;13910;44.782;10.282;2023-01-05T05:22:37;36.45;;;17.92;;
26157;SDS011;13910;44.782;10.282;2023-01-05T05:27:30;37.53;;;19.00;;
26157;SDS011;13910;44.782;10.282;2023-01-05T05:32:21;38.15;;;18.10;;
26157;SDS011;13910;44.782;10.282;2023-01-05T05:37:13;30.88;;;15.73;;
26157;SDS011;13910;44.782;10.282;2023-01-05T05:42:05;37.10;;;17.50;;
26157;SDS011;13910;44.782;10.282;2023-01-05T05:46:57;33.50;;;18.13;;
26157;SDS011;13910;44.782;10.282;2023-01-05T05:51:48;35.05;;;18.83;;
26157;SDS011;13910;44.782;10.282;2023-01-05T05:56:40;35.58;;;18.33;;
26157;SDS011;13910;44.782;10.282;2023-01-05T06:01:32;34.35;;;19.77;;
26157;SDS011;13910;44.782;10.282;2023-01-05T06:06:24;34.83;;;19.52;;
26157;SDS011;13910;44.782;10.282;2023-01-05T06:11:16;37.55;;;18.60;;
26157;SDS011;13910;44.782;10.282;2023-01-05T06:16:08;36.78;;;19.38;;
26157;SDS011;13910;44.782;10.282;2023-01-05T06:21:00;37.05;;;19.00;;
26157;SDS011;13910;44.782;10.282;2023-01-05T06:25:52;37.17;;;19.52;;
26157;SDS011;13910;44.782;10.282;2023-01-05T06:30:44;36.75;;;19.63;;
26157;SDS011;13910;44.782;10.282;2023-01-05T06:35:35;36.60;;;19.42;;
26157;SDS011;13910;44.782;10.282;2023-01-05T06:40:27;40.65;;;20.38;;
26157;SDS011;13910;44.782;10.282;2023-01-05T06:45:19;33.85;;;19.05;;
26157;SDS011;13910;44.782;10.282;2023-01-05T06:50:11;44.00;;;22.08;;
26157;SDS011;13910;44.782;10.282;2023-01-05T06:55:03;42.75;;;22.25;;
26157;SDS011;13910;44.782;10.282;2023-01-05T06:59:54;38.67;;;20.50;;
26157;SDS011;13910;44.782;10.282;2023-01-05T07:04:46;37.63;;;19.73;;
26157;SDS011;13910;44.782;10.282;2023-01-05T07:09:38;41.17;;;21.70;;
26157;SDS011;13910;44.782;10.282;2023-01-05T07:14:30;42.50;;;21.17;;
26157;SDS011;13910;44.782;10.282;2023-01-05T07:19:22;45.03;;;21.35;;
26157;SDS011;13910;44.782;10.282;2023-01-05T07:24:14;45.97;;;23.02;;
26157;SDS011;13910;44.782;10.282;2023-01-05T07:29:06;48.20;;;22.30;;
26157;SDS011;13910;44.782;10.282;2023-01-05T07:33:57;49.05;;;22.80;;
26157;SDS011;13910;44.782;10.282;2023-01-05T07:38:50;47.92;;;24.50;;
26157;SDS011;13910;44.782;10.282;2023-01-05T07:43:42;48.72;;;23.27;;
26157;SDS011;13910;44.782;10.282;2023-01-05T07:48:34;48.40;;;23.23;;
26157;SDS011;13910;44.782;10.282;2023-01-05T07:53:26;48.47;;;23.52;;
26157;SDS011;13910;44.782;10.282;2023-01-05T07:58:17;51.70;;;22.73;;
26157;SDS011;13910;44.782;10.282;2023-01-05T08:03:09;63.58;;;26.92;;
26157;SDS011;13910;44.782;10.282;2023-01-05T08:08:01;60.00;;;24.65;;
26157;SDS011;13910;44.782;10.282;2023-01-05T08:12:53;54.17;;;24.23;;
26157;SDS011;13910;44.782;10.282;2023-01-05T08:18:03;53.70;;;26.48;;
26157;SDS011;13910;44.782;10.282;2023-01-05T08:22:55;60.70;;;28.45;;
26157;SDS011;13910;44.782;10.282;2023-01-05T08:27:47;65.95;;;29.30;;
26157;SDS011;13910;44.782;10.282;2023-01-05T08:32:39;54.92;;;27.25;;
26157;SDS011;13910;44.782;10.282;2023-01-05T08:37:31;67.53;;;28.17;;
26157;SDS011;13910;44.782;10.282;2023-01-05T08:42:23;54.33;;;28.00;;
26157;SDS011;13910;44.782;10.282;2023-01-05T08:47:14;53.10;;;27.10;;
26157;SDS011;13910;44.782;10.282;2023-01-05T08:52:08;51.78;;;29.05;;
26157;SDS011;13910;44.782;10.282;2023-01-05T08:57:00;46.80;;;28.83;;
26157;SDS011;13910;44.782;10.282;2023-01-05T09:01:52;51.97;;;27.33;;
26157;SDS011;13910;44.782;10.282;2023-01-05T09:06:44;45.53;;;24.80;;
26157;SDS011;13910;44.782;10.282;2023-01-05T09:11:36;50.03;;;26.65;;
26157;SDS011;13910;44.782;10.282;2023-01-05T09:16:29;53.75;;;28.92;;
26157;SDS011;13910;44.782;10.282;2023-01-05T09:21:42;52.58;;;27.30;;
26157;SDS011;13910;44.782;10.282;2023-01-05T09:26:35;53.92;;;28.25;;
26157;SDS011;13910;44.782;10.282;2023-01-05T09:31:26;53.90;;;29.23;;
26157;SDS011;13910;44.782;10.282;2023-01-05T09:36:18;55.33;;;31.23;;
26157;SDS011;13910;44.782;10.282;2023-01-05T09:41:12;60.35;;;31.15;;
26157;SDS011;13910;44.782;10.282;2023-01-05T09:46:09;52.28;;;29.10;;
26157;SDS011;13910;44.782;10.282;2023-01-05T09:51:04;58.42;;;29.88;;
26157;SDS011;13910;44.782;10.282;2023-01-05T09:55:56;56.70;;;31.27;;
26157;SDS011;13910;44.782;10.282;2023-01-05T10:06:05;58.28;;;32.20;;
26157;SDS011;13910;44.782;10.282;2023-01-05T10:11:09;64.40;;;33.33;;
26157;SDS011;13910;44.782;10.282;2023-01-05T10:16:27;59.83;;;33.42;;
26157;SDS011;13910;44.782;10.282;2023-01-05T10:21:25;60.38;;;32.03;;
26157;SDS011;13910;44.782;10.282;2023-01-05T10:26:26;64.07;;;34.42;;
26157;SDS011;13910;44.782;10.282;2023-01-05T10:42:02;72.88;;;36.10;;
26157;SDS011;13910;44.782;10.282;2023-01-05T10:47:00;68.88;;;35.08;;
26157;SDS011;13910;44.782;10.282;2023-01-05T10:51:54;73.53;;;38.58;;
26157;SDS011;13910;44.782;10.282;2023-01-05T10:56:47;73.72;;;36.88;;
26157;SDS011;13910;44.782;10.282;2023-01-05T11:01:42;79.00;;;40.33;;
26157;SDS011;13910;44.782;10.282;2023-01-05T11:06:37;76.88;;;38.65;;
26157;SDS011;13910;44.782;10.282;2023-01-05T11:11:29;70.50;;;36.80;;
26157;SDS011;13910;44.782;10.282;2023-01-05T11:16:21;73.63;;;36.42;;
26157;SDS011;13910;44.782;10.282;2023-01-05T11:21:22;69.03;;;35.60;;
26157;SDS011;13910;44.782;10.282;2023-01-05T11:31:22;64.40;;;34.40;;
26157;SDS011;13910;44.782;10.282;2023-01-05T11:36:36;66.82;;;34.05;;
26157;SDS011;13910;44.782;10.282;2023-01-05T11:41:29;61.38;;;32.95;;
26157;SDS011;13910;44.782;10.282;2023-01-05T11:46:20;60.47;;;33.78;;
26157;SDS011;13910;44.782;10.282;2023-01-05T11:51:31;58.67;;;31.80;;
26157;SDS011;13910;44.782;10.282;2023-01-05T11:56:25;58.13;;;31.35;;
26157;SDS011;13910;44.782;10.282;2023-01-05T12:11:35;56.33;;;29.52;;
26157;SDS011;13910;44.782;10.282;2023-01-05T12:16:53;54.75;;;27.55;;
26157;SDS011;13910;44.782;10.282;2023-01-05T12:26:48;48.42;;;28.15;;
26157;SDS011;13910;44.782;10.282;2023-01-05T12:52:51;45.85;;;26.13;;
26157;SDS011;13910;44.782;10.282;2023-01-05T12:57:50;44.65;;;26.55;;
26157;SDS011;13910;44.782;10.282;2023-01-05T13:02:52;50.92;;;30.25;;
26157;SDS011;13910;44.782;10.282;2023-01-05T13:07:52;55.72;;;31.40;;
26157;SDS011;13910;44.782;10.282;2023-01-05T13:12:47;46.92;;;28.40;;
26157;SDS011;13910;44.782;10.282;2023-01-05T13:17:44;54.03;;;31.48;;
26157;SDS011;13910;44.782;10.282;2023-01-05T13:22:39;55.03;;;31.73;;
26157;SDS011;13910;44.782;10.282;2023-01-05T13:27:34;52.33;;;31.60;;
26157;SDS011;13910;44.782;10.282;2023-01-05T13:53:55;63.60;;;34.97;;
26157;SDS011;13910;44.782;10.282;2023-01-05T13:58:57;58.17;;;31.35;;
26157;SDS011;13910;44.782;10.282;2023-01-05T14:03:53;58.75;;;33.95;;
26157;SDS011;13910;44.782;10.282;2023-01-05T14:08:51;58.20;;;32.92;;
26157;SDS011;13910;44.782;10.282;2023-01-05T14:13:51;60.08;;;35.30;;
26157;SDS011;13910;44.782;10.282;2023-01-05T14:18:50;57.83;;;32.15;;
26157;SDS011;13910;44.782;10.282;2023-01-05T14:33:26;63.63;;;36.85;;
26157;SDS011;13910;44.782;10.282;2023-01-05T14:38:22;55.50;;;33.10;;
26157;SDS011;13910;44.782;10.282;2023-01-05T14:43:33;59.03;;;34.20;;
26157;SDS011;13910;44.782;10.282;2023-01-05T14:48:28;63.30;;;35.35;;
26157;SDS011;13910;44.782;10.282;2023-01-05T14:53:38;64.35;;;37.13;;
26157;SDS011;13910;44.782;10.282;2023-01-05T15:08:54;65.83;;;36.00;;
26157;SDS011;13910;44.782;10.282;2023-01-05T15:19:34;71.97;;;38.20;;
26157;SDS011;13910;44.782;10.282;2023-01-05T15:29:49;65.88;;;35.83;;
26157;SDS011;13910;44.782;10.282;2023-01-05T15:40:30;63.55;;;35.08;;
26157;SDS011;13910;44.782;10.282;2023-01-05T15:50:25;66.72;;;38.30;;
26157;SDS011;13910;44.782;10.282;2023-01-05T15:55:29;62.33;;;35.65;;
26157;SDS011;13910;44.782;10.282;2023-01-05T16:00:26;71.47;;;34.85;;
26157;SDS011;13910;44.782;10.282;2023-01-05T16:05:26;62.22;;;34.50;;
26157;SDS011;13910;44.782;10.282;2023-01-05T16:10:21;58.10;;;33.45;;
26157;SDS011;13910;44.782;10.282;2023-01-05T16:15:34;64.38;;;36.17;;
26157;SDS011;13910;44.782;10.282;2023-01-05T16:20:27;57.22;;;33.33;;
26157;SDS011;13910;44.782;10.282;2023-01-05T16:25:23;61.00;;;34.60;;
26157;SDS011;13910;44.782;10.282;2023-01-05T16:40:39;60.03;;;34.25;;
26157;SDS011;13910;44.782;10.282;2023-01-05T16:45:37;62.05;;;33.85;;
26157;SDS011;13910;44.782;10.282;2023-01-05T16:55:30;55.75;;;33.30;;
26157;SDS011;13910;44.782;10.282;2023-01-05T17:05:22;61.97;;;33.50;;
26157;SDS011;13910;44.782;10.282;2023-01-05T17:10:19;58.40;;;32.22;;
26157;SDS011;13910;44.782;10.282;2023-01-05T17:15:16;60.38;;;33.28;;
26157;SDS011;13910;44.782;10.282;2023-01-05T17:20:11;61.10;;;34.03;;
26157;SDS011;13910;44.782;10.282;2023-01-05T17:25:03;59.45;;;33.70;;
26157;SDS011;13910;44.782;10.282;2023-01-05T17:30:01;63.80;;;36.10;;
26157;SDS011;13910;44.782;10.282;2023-01-05T17:34:53;60.78;;;33.63;;
26157;SDS011;13910;44.782;10.282;2023-01-05T17:39:45;58.45;;;33.47;;
26157;SDS011;13910;44.782;10.282;2023-01-05T17:44:36;62.33;;;34.50;;
26157;SDS011;13910;44.782;10.282;2023-01-05T17:49:28;56.78;;;32.33;;
26157;SDS011;13910;44.782;10.282;2023-01-05T17:54:23;61.58;;;33.67;;
26157;SDS011;13910;44.782;10.282;2023-01-05T17:59:14;60.47;;;33.30;;
26157;SDS011;13910;44.782;10.282;2023-01-05T18:04:06;56.83;;;31.85;;
26157;SDS011;13910;44.782;10.282;2023-01-05T18:08:58;59.97;;;33.65;;
26157;SDS011;13910;44.782;10.282;2023-01-05T18:13:50;55.78;;;33.30;;
26157;SDS011;13910;44.782;10.282;2023-01-05T18:18:41;62.72;;;35.30;;
26157;SDS011;13910;44.782;10.282;2023-01-05T18:23:34;60.85;;;34.53;;
26157;SDS011;13910;44.782;10.282;2023-01-05T18:28:26;58.95;;;35.05;;
26157;SDS011;13910;44.782;10.282;2023-01-05T18:33:18;66.35;;;36.90;;
26157;SDS011;13910;44.782;10.282;2023-01-05T18:38:10;67.43;;;37.47;;
26157;SDS011;13910;44.782;10.282;2023-01-05T18:43:01;64.25;;;35.92;;
26157;SDS011;13910;44.782;10.282;2023-01-05T18:47:54;61.72;;;35.53;;
26157;SDS011;13910;44.782;10.282;2023-01-05T18:52:47;65.85;;;36.90;;
26157;SDS011;13910;44.782;10.282;2023-01-05T18:57:39;69.28;;;36.20;;
26157;SDS011;13910;44.782;10.282;2023-01-05T19:02:31;67.88;;;39.63;;
26157;SDS011;13910;44.782;10.282;2023-01-05T19:07:22;67.70;;;38.10;;
26157;SDS011;13910;44.782;10.282;2023-01-05T19:12:14;70.38;;;37.75;;
26157;SDS011;13910;44.782;10.282;2023-01-05T19:17:06;72.28;;;39.88;;
26157;SDS011;13910;44.782;10.282;2023-01-05T19:21:58;71.07;;;40.00;;
26157;SDS011;13910;44.782;10.282;2023-01-05T19:26:49;71.47;;;39.42;;
26157;SDS011;13910;44.782;10.282;2023-01-05T19:31:42;70.38;;;40.00;;
26157;SDS011;13910;44.782;10.282;2023-01-05T19:36:35;69.57;;;39.30;;
26157;SDS011;13910;44.782;10.282;2023-01-05T19:41:27;73.72;;;39.60;;
26157;SDS011;13910;44.782;10.282;2023-01-05T19:46:20;68.60;;;37.42;;
26157;SDS011;13910;44.782;10.282;2023-01-05T19:51:17;69.68;;;38.28;;
26157;SDS011;13910;44.782;10.282;2023-01-05T19:56:13;69.95;;;37.65;;
26157;SDS011;13910;44.782;10.282;2023-01-05T20:01:14;67.68;;;38.67;;
26157;SDS011;13910;44.782;10.282;2023-01-05T20:06:08;67.90;;;36.72;;
26157;SDS011;13910;44.782;10.282;2023-01-05T20:11:12;69.20;;;38.13;;
26157;SDS011;13910;44.782;10.282;2023-01-05T20:16:06;65.18;;;38.67;;
26157;SDS011;13910;44.782;10.282;2023-01-05T20:21:01;75.40;;;41.03;;
26157;SDS011;13910;44.782;10.282;2023-01-05T20:25:53;76.50;;;39.22;;
26157;SDS011;13910;44.782;10.282;2023-01-05T20:30:57;67.72;;;37.28;;
26157;SDS011;13910;44.782;10.282;2023-01-05T20:35:49;64.97;;;36.88;;
26157;SDS011;13910;44.782;10.282;2023-01-05T20:40:42;62.78;;;36.33;;
26157;SDS011;13910;44.782;10.282;2023-01-05T20:45:34;65.38;;;35.60;;
26157;SDS011;13910;44.782;10.282;2023-01-05T20:50:26;66.68;;;36.05;;
26157;SDS011;13910;44.782;10.282;2023-01-05T20:55:17;63.28;;;36.28;;
26157;SDS011;13910;44.782;10.282;2023-01-05T21:00:09;59.70;;;33.42;;
26157;SDS011;13910;44.782;10.282;2023-01-05T21:05:04;49.80;;;30.35;;
26157;SDS011;13910;44.782;10.282;2023-01-05T21:09:56;47.08;;;28.20;;
26157;SDS011;13910;44.782;10.282;2023-01-05T21:14:49;41.05;;;27.17;;
26157;SDS011;13910;44.782;10.282;2023-01-05T21:19:41;43.40;;;25.00;;
26157;SDS011;13910;44.782;10.282;2023-01-05T21:24:32;34.95;;;24.20;;
26157;SDS011;13910;44.782;10.282;2023-01-05T21:29:24;31.35;;;22.13;;
26157;SDS011;13910;44.782;10.282;2023-01-05T21:34:16;30.98;;;23.13;;
26157;SDS011;13910;44.782;10.282;2023-01-05T21:39:10;37.08;;;24.63;;
26157;SDS011;13910;44.782;10.282;2023-01-05T21:44:08;36.95;;;25.05;;
26157;SDS011;13910;44.782;10.282;2023-01-05T21:49:01;36.35;;;25.08;;
26157;SDS011;13910;44.782;10.282;2023-01-05T21:53:53;39.00;;;25.42;;
26157;SDS011;13910;44.782;10.282;2023-01-05T21:59:04;38.35;;;26.55;;
26157;SDS011;13910;44.782;10.282;2023-01-05T22:03:59;37.65;;;26.40;;
26157;SDS011;13910;44.782;10.282;2023-01-05T22:08:51;37.83;;;25.73;;
26157;SDS011;13910;44.782;10.282;2023-01-05T22:13:42;40.85;;;27.23;;
26157;SDS011;13910;44.782;10.282;2023-01-05T22:18:34;43.38;;;28.70;;
26157;SDS011;13910;44.782;10.282;2023-01-05T22:23:26;40.20;;;26.90;;
26157;SDS011;13910;44.782;10.282;2023-01-05T22:28:19;42.67;;;27.70;;
26157;SDS011;13910;44.782;10.282;2023-01-05T22:33:11;41.17;;;27.42;;
26157;SDS011;13910;44.782;10.282;2023-01-05T22:38:02;43.40;;;28.80;;
26157;SDS011;13910;44.782;10.282;2023-01-05T22:42:54;45.03;;;28.50;;
26157;SDS011;13910;44.782;10.282;2023-01-05T22:47:46;36.08;;;24.75;;
26157;SDS011;13910;44.782;10.282;2023-01-05T22:52:37;36.40;;;25.42;;
26157;SDS011;13910;44.782;10.282;2023-01-05T22:57:29;34.97;;;24.70;;
26157;SDS011;13910;44.782;10.282;2023-01-05T23:02:21;37.05;;;23.95;;
26157;SDS011;13910;44.782;10.282;2023-01-05T23:07:13;33.75;;;24.48;;
26157;SDS011;13910;44.782;10.282;2023-01-05T23:12:05;35.55;;;24.85;;
26157;SDS011;13910;44.782;10.282;2023-01-05T23:16:56;36.10;;;25.92;;
26157;SDS011;13910;44.782;10.282;2023-01-05T23:21:48;34.30;;;24.70;;
26157;SDS011;13910;44.782;10.282;2023-01-05T23:26:40;38.28;;;27.50;;
26157;SDS011;13910;44.782;10.282;2023-01-05T23:31:31;41.00;;;27.77;;
26157;SDS011;13910;44.782;10.282;2023-01-05T23:36:23;41.47;;;27.75;;
26157;SDS011;13910;44.782;10.282;2023-01-05T23:41:16;42.13;;;27.52;;
26157;SDS011;13910;44.782;10.282;2023-01-05T23:46:09;39.85;;;27.38;;
26157;SDS011;13910;44.782;10.282;2023-01-05T23:51:03;35.20;;;25.33;;
26157;SDS011;13910;44.782;10.282;2023-01-05T23:56:03;35.95;;;25.88;;
